createdAt,value
2018-07-20T00:03:53.077Z,8.13
2018-07-20T00:07:59.464Z,7.80
2018-07-20T00:12:04.490Z,7.95
2018-07-20T00:16:09.064Z,8.30
2018-07-20T00:20:14.231Z,8.05
2018-07-20T00:24:19.686Z,9.53
2018-07-20T00:28:24.878Z,8.00
2018-07-20T00:32:32.851Z,7.97
2018-07-20T00:36:37.790Z,8.78
2018-07-20T00:40:42.310Z,8.20
2018-07-20T00:44:48.009Z,8.53
2018-07-20T00:48:54.009Z,8.00
2018-07-20T00:52:58.553Z,8.05
2018-07-20T00:57:04.406Z,9.30
2018-07-20T01:01:10.510Z,8.43
2018-07-20T01:05:15.592Z,8.20
2018-07-20T01:09:20.320Z,8.15
2018-07-20T01:13:24.888Z,7.55
2018-07-20T01:17:30.445Z,7.55
2018-07-20T01:21:37.594Z,9.33
2018-07-20T01:25:48.681Z,7.67
2018-07-20T01:29:55.141Z,7.70
2018-07-20T01:34:05.987Z,8.57
2018-07-20T01:38:10.838Z,7.10
2018-07-20T01:42:15.498Z,7.03
2018-07-20T01:46:19.807Z,7.50
2018-07-20T01:50:24.438Z,7.10
2018-07-20T01:54:29.375Z,7.00
2018-07-20T01:58:33.766Z,7.37
2018-07-20T02:02:40.087Z,7.47
2018-07-20T02:06:45.101Z,7.53
2018-07-20T02:10:58.962Z,7.37
2018-07-20T02:15:05.119Z,6.83
2018-07-20T02:19:09.707Z,6.58
2018-07-20T02:23:15.692Z,7.37
2018-07-20T02:27:20.961Z,7.60
2018-07-20T02:31:27.091Z,7.30
2018-07-20T02:35:31.956Z,8.55
2018-07-20T02:39:38.487Z,7.28
2018-07-20T02:43:43.900Z,7.40
2018-07-20T02:47:50.051Z,9.70
2018-07-20T02:51:56.103Z,7.75
2018-07-20T02:56:00.510Z,7.30
2018-07-20T03:00:05.036Z,7.33
2018-07-20T03:04:10.677Z,7.15
2018-07-20T03:08:15.661Z,7.70
2018-07-20T03:12:20.922Z,7.67
2018-07-20T03:16:26.045Z,7.67
2018-07-20T03:20:32.274Z,7.93
2018-07-20T03:24:36.753Z,7.50
2018-07-20T03:28:42.122Z,8.00
2018-07-20T03:32:50.052Z,7.83
2018-07-20T03:36:58.001Z,9.03
2018-07-20T03:41:02.947Z,8.20
2018-07-20T03:45:09.328Z,7.97
2018-07-20T03:53:28.267Z,7.93
2018-07-20T03:57:33.125Z,8.67
2018-07-20T04:01:40.927Z,8.90
2018-07-20T04:05:47.610Z,9.33
2018-07-20T04:09:54.687Z,8.03
2018-07-20T04:14:00.342Z,8.53
2018-07-20T04:18:07.947Z,9.30
2018-07-20T04:22:14.778Z,9.33
2018-07-20T04:26:24.772Z,8.57
2018-07-20T04:30:30.793Z,8.70
2018-07-20T04:34:40.234Z,8.17
2018-07-20T04:38:54.731Z,9.00
2018-07-20T04:43:11.527Z,8.77
2018-07-20T04:47:33.484Z,8.43
2018-07-20T04:51:49.878Z,9.88
2018-07-20T04:56:04.895Z,8.93
2018-07-20T05:00:25.979Z,8.57
2018-07-20T05:04:34.878Z,9.07
2018-07-20T05:08:50.860Z,9.03
2018-07-20T05:12:59.529Z,8.80
2018-07-20T05:17:18.068Z,9.17
2018-07-20T05:21:32.107Z,9.27
2018-07-20T05:26:09.130Z,9.85
2018-07-20T05:30:35.573Z,9.40
2018-07-20T05:34:39.339Z,9.93
2018-07-20T05:38:42.844Z,9.20
2018-07-20T05:42:46.298Z,9.55
2018-07-20T05:46:49.757Z,11.33
2018-07-20T05:50:53.208Z,9.43
2018-07-20T05:54:56.755Z,8.63
2018-07-20T05:59:00.260Z,9.65
2018-07-20T06:03:03.734Z,8.78
2018-07-20T06:07:07.186Z,9.48
2018-07-20T06:11:10.650Z,8.80
2018-07-20T06:15:14.086Z,8.25
2018-07-20T06:19:17.530Z,10.13
2018-07-20T06:23:21.047Z,9.33
2018-07-20T06:27:24.555Z,9.55
2018-07-20T06:31:28.018Z,9.03
2018-07-20T06:35:31.490Z,8.93
2018-07-20T06:39:34.971Z,9.30
2018-07-20T06:43:38.399Z,8.40
2018-07-20T06:47:41.897Z,8.68
2018-07-20T06:51:45.331Z,8.25
2018-07-20T06:55:48.804Z,9.05
2018-07-20T06:59:52.263Z,9.33
2018-07-20T07:03:55.833Z,8.75
2018-07-20T07:07:59.418Z,9.68
2018-07-20T07:12:02.855Z,9.73
2018-07-20T07:16:06.806Z,9.23
2018-07-20T07:20:10.369Z,9.90
2018-07-20T07:24:13.852Z,8.65
2018-07-20T07:28:17.354Z,8.35
2018-07-20T07:32:20.845Z,8.90
2018-07-20T07:36:24.315Z,8.53
2018-07-20T07:40:27.762Z,8.53
2018-07-20T07:44:31.248Z,8.75
2018-07-20T07:48:34.732Z,8.55
2018-07-20T07:52:38.253Z,9.05
2018-07-20T07:56:41.976Z,9.23
2018-07-20T08:00:45.493Z,8.65
2018-07-20T08:04:48.983Z,9.20
2018-07-20T08:08:52.443Z,9.50
2018-07-20T08:12:56.149Z,9.63
2018-07-20T08:16:59.730Z,8.98
2018-07-20T08:21:03.276Z,8.88
2018-07-20T08:25:06.826Z,9.15
2018-07-20T08:29:10.321Z,9.48
2018-07-20T08:33:13.790Z,9.45
2018-07-20T08:37:17.354Z,9.55
2018-07-20T08:41:21.210Z,11.28
2018-07-20T08:45:24.651Z,9.55
2018-07-20T08:49:28.118Z,9.95
2018-07-20T08:53:31.740Z,9.63
2018-07-20T08:57:35.200Z,10.48
2018-07-20T09:01:38.784Z,9.93
2018-07-20T09:05:42.247Z,10.63
2018-07-20T09:09:45.731Z,9.80
2018-07-20T09:13:49.409Z,10.65
2018-07-20T09:17:52.735Z,10.95
2018-07-20T09:21:56.308Z,10.72
2018-07-20T09:25:59.770Z,10.08
2018-07-20T09:30:03.253Z,9.90
2018-07-20T09:34:07.031Z,10.25
2018-07-20T09:38:10.523Z,10.00
2018-07-20T09:42:14.058Z,9.65
2018-07-20T09:46:17.534Z,9.15
2018-07-20T09:50:20.966Z,9.43
2018-07-20T09:54:24.458Z,9.58
2018-07-20T09:58:28.034Z,10.03
2018-07-20T10:02:31.427Z,9.45
2018-07-20T10:06:34.959Z,9.20
2018-07-20T10:10:38.415Z,9.38
2018-07-20T10:14:41.914Z,8.73
2018-07-20T10:18:45.767Z,8.00
2018-07-20T10:22:49.264Z,8.40
2018-07-20T10:26:52.753Z,8.33
2018-07-20T10:30:56.238Z,7.25
2018-07-20T10:34:59.785Z,8.73
2018-07-20T10:39:03.359Z,8.65
2018-07-20T10:43:06.892Z,8.48
2018-07-20T10:47:10.329Z,8.23
2018-07-20T10:51:13.786Z,7.50
2018-07-20T10:55:17.569Z,8.10
2018-07-20T10:59:21.047Z,7.42
2018-07-20T11:03:24.590Z,7.12
2018-07-20T11:07:28.035Z,10.88
2018-07-20T11:11:31.539Z,6.97
2018-07-20T11:15:35.060Z,6.80
2018-07-20T11:19:40.104Z,6.47
2018-07-20T11:23:43.566Z,6.30
2018-07-20T11:27:47.129Z,7.28
2018-07-20T11:31:50.598Z,5.83
2018-07-20T11:35:54.094Z,6.53
2018-07-20T11:39:57.549Z,7.62
2018-07-20T11:44:01.011Z,6.20
2018-07-20T11:48:04.466Z,6.30
2018-07-20T11:52:07.943Z,6.05
2018-07-20T11:56:11.378Z,6.58
2018-07-20T12:00:14.893Z,8.08
2018-07-20T12:04:18.363Z,6.83
2018-07-20T12:08:21.828Z,6.75
2018-07-20T12:12:25.251Z,6.67
2018-07-20T12:16:28.718Z,8.15
2018-07-20T12:20:32.197Z,6.17
2018-07-20T12:24:35.638Z,6.37
2018-07-20T12:28:39.171Z,6.25
2018-07-20T12:32:42.622Z,6.67
2018-07-20T12:36:46.166Z,11.85
2018-07-20T12:40:49.746Z,7.65
2018-07-20T12:44:53.258Z,6.90
2018-07-20T12:48:56.690Z,7.12
2018-07-20T12:53:00.162Z,10.68
2018-07-20T12:57:03.842Z,7.97
2018-07-20T13:01:07.325Z,7.42
2018-07-20T13:05:10.787Z,6.90
2018-07-20T13:09:14.273Z,6.65
2018-07-20T13:13:17.751Z,7.20
2018-07-20T13:17:21.212Z,7.08
2018-07-20T13:21:24.617Z,7.10
2018-07-20T13:25:28.157Z,7.20
2018-07-20T13:29:31.664Z,6.95
2018-07-20T13:33:36.093Z,7.58
2018-07-20T13:37:39.562Z,7.83
2018-07-20T13:41:43.010Z,7.47
2018-07-20T13:45:46.517Z,7.62
2018-07-20T13:49:50.097Z,7.65
2018-07-20T13:53:53.606Z,7.50
2018-07-20T13:57:57.135Z,7.78
2018-07-20T14:02:00.603Z,8.30
2018-07-20T14:06:04.147Z,8.55
2018-07-20T14:10:07.656Z,8.18
2018-07-20T14:14:11.262Z,8.25
2018-07-20T14:18:14.782Z,8.45
2018-07-20T14:22:18.214Z,8.25
2018-07-20T14:26:21.712Z,8.85
2018-07-20T14:30:25.146Z,9.03
2018-07-20T14:34:28.633Z,9.08
2018-07-20T14:38:32.158Z,7.80
2018-07-20T14:42:35.662Z,7.92
2018-07-20T14:46:39.134Z,8.25
2018-07-20T14:50:42.580Z,8.55
2018-07-20T14:54:46.098Z,8.73
2018-07-20T14:58:49.596Z,8.88
2018-07-20T15:02:53.063Z,9.20
2018-07-20T15:06:56.588Z,9.40
2018-07-20T15:11:00.112Z,8.80
2018-07-20T15:15:03.599Z,9.65
2018-07-20T15:19:07.278Z,8.68
2018-07-20T15:23:11.847Z,8.90
2018-07-20T15:27:15.347Z,9.35
2018-07-20T15:31:18.884Z,9.80
2018-07-20T15:35:22.268Z,9.10
2018-07-20T15:39:25.768Z,9.03
2018-07-20T15:43:29.213Z,10.28
2018-07-20T15:47:32.870Z,10.10
2018-07-20T15:53:35.054Z,9.58
2018-07-20T15:55:39.722Z,9.78
2018-07-20T15:59:43.260Z,10.08
2018-07-20T16:03:46.645Z,9.58
2018-07-20T16:07:50.146Z,9.53
2018-07-20T16:11:53.610Z,9.98
2018-07-20T16:15:57.157Z,13.18
2018-07-20T16:20:00.616Z,9.45
2018-07-20T16:24:04.190Z,9.73
2018-07-20T16:28:07.716Z,9.30
2018-07-20T16:32:11.268Z,9.48
2018-07-20T16:36:14.730Z,11.28
2018-07-20T16:40:18.231Z,9.40
2018-07-20T16:44:21.836Z,9.85
2018-07-20T16:48:25.336Z,9.73
2018-07-20T16:52:28.814Z,9.58
2018-07-20T16:56:32.251Z,9.33
2018-07-20T17:00:35.709Z,9.85
2018-07-20T17:04:39.134Z,9.28
2018-07-20T17:08:42.658Z,10.65
2018-07-20T17:12:46.094Z,9.85
2018-07-20T17:16:49.608Z,10.93
2018-07-20T17:20:53.086Z,11.45
2018-07-20T17:24:56.538Z,10.10
2018-07-20T17:29:00.005Z,9.93
2018-07-20T17:33:03.510Z,10.32
2018-07-20T17:37:06.962Z,10.25
2018-07-20T17:41:10.394Z,9.35
2018-07-20T17:45:13.892Z,10.38
2018-07-20T17:49:17.377Z,11.30
2018-07-20T17:53:20.843Z,9.60
2018-07-20T17:57:24.338Z,11.83
2018-07-20T18:01:27.861Z,9.78
2018-07-20T18:05:31.382Z,9.70
2018-07-20T18:09:34.831Z,10.25
2018-07-20T18:13:38.315Z,9.80
2018-07-20T18:17:41.891Z,9.05
2018-07-20T18:21:45.358Z,9.65
2018-07-20T18:25:48.851Z,13.90
2018-07-20T18:29:52.322Z,13.80
2018-07-20T18:33:55.894Z,15.00
2018-07-20T18:37:59.295Z,13.18
2018-07-20T18:42:02.803Z,17.62
2018-07-20T18:46:06.454Z,14.53
2018-07-20T18:50:10.532Z,10.60
2018-07-20T18:54:13.962Z,10.00
2018-07-20T18:58:17.430Z,10.03
2018-07-20T19:02:20.910Z,11.65
2018-07-20T19:06:24.615Z,11.12
2018-07-20T19:10:28.035Z,13.78
2018-07-20T19:14:31.523Z,12.88
2018-07-20T19:18:34.982Z,13.43
2018-07-20T19:22:38.433Z,13.95
2018-07-20T19:26:42.102Z,13.15
2018-07-20T19:30:45.568Z,13.05
2018-07-20T19:34:49.168Z,13.83
2018-07-20T19:38:52.658Z,13.18
2018-07-20T19:42:56.341Z,13.15
2018-07-20T19:46:59.814Z,12.53
2018-07-20T19:51:03.326Z,12.73
2018-07-20T19:55:07.339Z,12.25
2018-07-20T19:59:10.779Z,11.22
2018-07-20T20:03:14.222Z,11.90
2018-07-20T20:07:17.696Z,11.35
2018-07-20T20:11:21.164Z,11.53
2018-07-20T20:15:24.674Z,13.05
2018-07-20T20:19:28.166Z,12.78
2018-07-20T20:23:31.664Z,13.88
2018-07-20T20:27:35.114Z,14.15
2018-07-20T20:31:38.566Z,14.03
2018-07-20T20:35:42.030Z,13.45
2018-07-20T20:39:45.520Z,13.90
2018-07-20T20:43:49.018Z,13.70
2018-07-20T20:47:52.469Z,13.53
2018-07-20T20:51:55.974Z,13.55
2018-07-20T20:55:59.446Z,13.15
2018-07-20T21:00:02.960Z,13.28
2018-07-20T21:04:06.464Z,13.32
2018-07-20T21:08:09.907Z,14.47
2018-07-20T21:12:13.420Z,12.45
2018-07-20T21:16:16.808Z,13.98
2018-07-20T21:20:20.250Z,13.03
2018-07-20T21:24:23.693Z,13.85
2018-07-20T21:28:27.150Z,13.80
2018-07-20T21:32:30.664Z,14.13
2018-07-20T21:36:34.137Z,13.53
2018-07-20T21:40:37.631Z,14.07
2018-07-20T21:44:41.182Z,14.65
2018-07-20T21:48:44.744Z,13.60
2018-07-20T21:52:48.216Z,18.20
2018-07-20T21:56:51.651Z,14.73
2018-07-20T22:00:55.139Z,12.85
2018-07-20T22:04:58.563Z,13.50
2018-07-20T22:09:02.035Z,14.33
2018-07-20T22:13:05.509Z,13.13
2018-07-20T22:17:08.951Z,12.95
2018-07-20T22:21:12.457Z,13.53
2018-07-20T22:25:15.920Z,13.93
2018-07-20T22:29:19.358Z,13.18
2018-07-20T22:33:22.830Z,14.18
2018-07-20T22:37:26.258Z,14.10
2018-07-20T22:41:29.768Z,15.05
2018-07-20T22:45:33.209Z,14.00
2018-07-20T22:49:36.680Z,14.85
2018-07-20T22:53:40.188Z,15.18
2018-07-20T22:57:43.657Z,13.60
2018-07-20T23:01:47.190Z,14.43
2018-07-20T23:05:50.611Z,14.15
2018-07-20T23:09:54.105Z,13.00
2018-07-20T23:13:57.981Z,15.32
2018-07-20T23:18:01.508Z,15.85
2018-07-20T23:22:04.926Z,14.83
2018-07-20T23:26:08.446Z,14.38
2018-07-20T23:30:11.919Z,13.45
2018-07-20T23:34:15.391Z,13.13
2018-07-20T23:38:18.863Z,14.18
2018-07-20T23:42:22.299Z,12.78
2018-07-20T23:46:25.852Z,13.78
2018-07-20T23:50:29.334Z,14.43
2018-07-20T23:54:32.796Z,14.95
2018-07-20T23:58:36.237Z,14.83
